Time;durP1;ratioP1;P1;durP2;ratioP2;P2;SDS_P1;SDS_P2;PMS_P1;PMS_P2;Temp;Humidity;BMP_temperature;BMP_pressure;BME280_temperature;BME280_humidity;BME280_pressure;Samples;Min_cycle;Max_cycle;Signal;HPM_P1;HPM_P2
2022/06/14 00:01:14;;;;;;;4.75;1.75;;;14.60;57.20;;;;;;5052514;28;20051;-67
2022/06/14 00:03:42;;;;;;;3.53;1.35;;;14.60;57.20;;;;;;5052597;28;20040;-67
2022/06/14 00:06:18;;;;;;;8.68;2.08;;;14.60;57.20;;;;;;5052833;28;20037;-67
2022/06/14 00:08:44;;;;;;;4.40;1.50;;;14.60;57.30;;;;;;5052652;28;20052;-67
2022/06/14 00:11:16;;;;;;;5.40;1.58;;;14.50;57.20;;;;;;5036128;28;20052;-67
2022/06/14 00:13:42;;;;;;;4.50;1.50;;;14.50;57.30;;;;;;5052828;28;20122;-68
2022/06/14 00:16:09;;;;;;;3.05;1.20;;;14.50;57.30;;;;;;5051808;28;20041;-68
2022/06/14 00:18:34;;;;;;;4.10;1.55;;;14.50;57.30;;;;;;5052614;28;20115;-67
2022/06/14 00:21:00;;;;;;;3.80;1.20;;;14.40;57.30;;;;;;5052241;28;20198;-67
2022/06/14 00:23:26;;;;;;;3.42;1.40;;;14.40;57.20;;;;;;5052686;28;20098;-67
2022/06/14 00:25:55;;;;;;;3.90;1.10;;;14.40;57.20;;;;;;5052443;28;20400;-67
2022/06/14 00:28:23;;;;;;;3.10;1.38;;;14.40;57.30;;;;;;5035582;28;20041;-67
2022/06/14 00:30:52;;;;;;;5.95;1.90;;;14.30;57.20;;;;;;5052207;28;20053;-67
2022/06/14 00:33:18;;;;;;;3.03;1.67;;;14.20;57.20;;;;;;5051799;28;20060;-67
2022/06/14 00:35:44;;;;;;;4.22;1.65;;;14.30;57.30;;;;;;5035398;28;20048;-67
2022/06/14 00:38:11;;;;;;;3.92;1.40;;;14.20;57.30;;;;;;5051953;28;20044;-67
2022/06/14 00:40:38;;;;;;;5.25;1.50;;;14.20;57.30;;;;;;5052523;28;20071;-67
2022/06/14 00:43:14;;;;;;;3.72;1.55;;;14.20;57.40;;;;;;5051764;28;20471;-67
2022/06/14 00:45:40;;;;;;;3.15;1.30;;;14.10;57.40;;;;;;5044237;28;20103;-67
2022/06/14 00:48:14;;;;;;;3.30;1.30;;;14.10;57.40;;;;;;5052210;28;20041;-68
2022/06/14 00:51:05;;;;;;;4.68;1.80;;;14.10;57.90;;;;;;5052131;28;20488;-68
2022/06/14 00:53:46;;;;;;;4.68;1.40;;;14.10;57.50;;;;;;5052372;28;20047;-67
2022/06/14 00:56:25;;;;;;;3.72;1.50;;;14.10;57.50;;;;;;5051223;28;20032;-67
2022/06/14 00:59:01;;;;;;;5.00;1.60;;;14.10;57.60;;;;;;5051719;28;20515;-67
2022/06/14 01:01:31;;;;;;;3.85;1.50;;;14.00;57.50;;;;;;5052787;28;20046;-67
2022/06/14 01:04:02;;;;;;;4.68;1.80;;;14.00;57.70;;;;;;5046854;28;20056;-68
2022/06/14 01:06:32;;;;;;;3.40;2.13;;;14.00;57.60;;;;;;5050875;28;20484;-68
2022/06/14 01:09:31;;;;;;;3.35;1.27;;;14.00;57.70;;;;;;5051444;28;20037;-68
2022/06/14 01:12:22;;;;;;;5.07;1.50;;;14.00;57.60;;;;;;5053031;28;20029;-67
2022/06/14 01:15:08;;;;;;;4.13;1.38;;;13.90;57.60;;;;;;5037522;28;20488;-67
2022/06/14 01:17:41;;;;;;;3.95;1.30;;;13.90;57.60;;;;;;5035762;28;20048;-67
2022/06/14 01:20:09;;;;;;;4.68;1.30;;;13.90;57.70;;;;;;5051451;28;20392;-67
2022/06/14 01:22:35;;;;;;;3.78;1.30;;;13.90;57.70;;;;;;5050566;28;20033;-67
2022/06/14 01:25:02;;;;;;;4.88;1.77;;;13.80;57.70;;;;;;5051428;28;20060;-67
2022/06/14 01:27:31;;;;;;;4.75;1.52;;;13.80;57.70;;;;;;5051600;28;20056;-67
2022/06/14 01:30:16;;;;;;;4.50;1.70;;;13.80;57.70;;;;;;5051753;28;20128;-67
2022/06/14 01:32:53;;;;;;;4.18;1.60;;;13.80;57.70;;;;;;5052353;28;20081;-67
2022/06/14 01:35:26;;;;;;;3.65;1.70;;;13.80;57.80;;;;;;5050700;28;20048;-67
2022/06/14 01:37:54;;;;;;;5.32;1.70;;;13.80;57.80;;;;;;5041502;28;20052;-67
2022/06/14 01:40:41;;;;;;;4.05;1.40;;;13.70;57.80;;;;;;5050782;28;20511;-67
2022/06/14 01:43:09;;;;;;;4.25;1.90;;;13.80;57.90;;;;;;5039749;28;20040;-67
2022/06/14 01:45:59;;;;;;;4.03;1.83;;;13.70;57.90;;;;;;5051019;28;20045;-67
2022/06/14 01:48:47;;;;;;;4.78;1.63;;;13.70;57.90;;;;;;5050764;28;20392;-67
2022/06/14 01:51:51;;;;;;;3.90;1.90;;;13.70;57.90;;;;;;5050234;28;20116;-67
2022/06/14 01:54:22;;;;;;;3.30;1.60;;;13.70;58.00;;;;;;5050962;28;20546;-67
2022/06/14 01:57:06;;;;;;;6.07;2.40;;;13.60;58.00;;;;;;5045417;28;20459;-67
2022/06/14 01:59:52;;;;;;;3.53;1.30;;;13.60;58.10;;;;;;5050701;28;20041;-67
2022/06/14 02:04:36;;;;;;;4.97;1.63;;;13.60;58.20;;;;;;5050158;28;20064;-67
2022/06/14 02:05:50;;;;;;;4.68;1.92;;;13.60;58.10;;;;;;5040727;28;20053;-67
2022/06/14 02:08:18;;;;;;;;;;;13.60;58.30;;;;;;5050959;28;20072;-67
2022/06/14 02:10:58;;;;;;;3.22;1.80;;;13.50;58.00;;;;;;5050701;28;19939;-67
2022/06/14 02:13:31;;;;;;;5.13;1.70;;;13.50;58.30;;;;;;5050424;28;20043;-67
2022/06/14 02:16:13;;;;;;;3.28;1.83;;;13.50;58.30;;;;;;5041944;28;20499;-67
2022/06/14 02:19:17;;;;;;;4.15;2.17;;;13.50;58.40;;;;;;5040381;28;20042;-67
2022/06/14 02:22:02;;;;;;;4.15;1.83;;;13.50;58.40;;;;;;5049101;28;20049;-67
2022/06/14 02:24:29;;;;;;;;;;;13.50;58.40;;;;;;5054843;28;20183;-67
2022/06/14 02:27:08;;;;;;;5.72;1.92;;;13.40;58.40;;;;;;5054607;28;19920;-67
2022/06/14 02:29:43;;;;;;;4.32;1.58;;;13.40;58.30;;;;;;5054388;28;20044;-67
2022/06/14 02:32:22;;;;;;;7.00;1.85;;;13.40;58.40;;;;;;5054783;28;20452;-67
2022/06/14 02:34:50;;;;;;;4.10;1.95;;;13.40;58.40;;;;;;5056029;28;20044;-67
2022/06/14 02:37:34;;;;;;;5.15;2.22;;;13.40;58.40;;;;;;5054136;28;20037;-67
2022/06/14 02:40:08;;;;;;;3.85;1.70;;;13.40;58.40;;;;;;5069374;28;20090;-67
2022/06/14 02:42:44;;;;;;;5.20;1.70;;;13.40;58.40;;;;;;5046995;28;20037;-67
2022/06/14 02:45:38;;;;;;;4.45;2.00;;;13.40;58.40;;;;;;5054638;28;20041;-67
2022/06/14 02:48:07;;;;;;;2.97;1.40;;;13.40;58.40;;;;;;5053924;28;20119;-67
2022/06/14 02:50:42;;;;;;;3.10;1.73;;;13.40;58.50;;;;;;5054397;28;20037;-67
2022/06/14 02:53:23;;;;;;;5.55;1.80;;;13.40;58.50;;;;;;5054302;28;20037;-67
2022/06/14 02:56:07;;;;;;;2.45;1.50;;;13.30;58.50;;;;;;5065450;28;20107;-67
2022/06/14 02:58:53;;;;;;;4.78;2.15;;;13.30;58.50;;;;;;5049672;28;20036;-67
2022/06/14 03:01:32;;;;;;;5.82;2.35;;;13.30;58.50;;;;;;5037364;28;20091;-67
2022/06/14 03:04:04;;;;;;;4.75;2.03;;;13.30;58.60;;;;;;5055299;28;20041;-67
2022/06/14 03:06:47;;;;;;;4.72;1.55;;;13.20;58.50;;;;;;5053504;28;20052;-67
2022/06/14 03:09:16;;;;;;;9.23;1.95;;;13.20;58.60;;;;;;5054944;28;20503;-67
2022/06/14 03:12:03;;;;;;;3.53;1.40;;;13.20;58.60;;;;;;5053895;28;20029;-67
2022/06/14 03:14:38;;;;;;;3.67;1.77;;;13.20;58.60;;;;;;5041965;28;20124;-67
2022/06/14 03:17:26;;;;;;;3.70;2.28;;;13.20;58.60;;;;;;5037026;28;20119;-67
2022/06/14 03:20:06;;;;;;;3.50;1.75;;;13.20;58.60;;;;;;5053096;28;20080;-67
2022/06/14 03:22:34;;;;;;;4.45;1.88;;;13.20;58.70;;;;;;5054302;28;20423;-66
2022/06/14 03:25:16;;;;;;;5.28;1.80;;;13.20;58.80;;;;;;5052948;28;20167;-66
2022/06/14 03:27:45;;;;;;;7.72;2.25;;;13.10;58.70;;;;;;5053675;28;20468;-66
2022/06/14 03:30:14;;;;;;;3.63;1.65;;;13.10;58.80;;;;;;5053146;28;20043;-66
2022/06/14 03:33:04;;;;;;;5.05;1.63;;;13.10;58.80;;;;;;5052967;28;20089;-67
2022/06/14 03:35:38;;;;;;;3.70;1.73;;;13.10;58.90;;;;;;5053403;28;20041;-67
2022/06/14 03:38:12;;;;;;;3.42;1.77;;;13.10;58.90;;;;;;5034489;28;20040;-67
2022/06/14 03:40:41;;;;;;;5.53;2.00;;;13.00;58.90;;;;;;5054738;28;20444;-66
2022/06/14 03:43:07;;;;;;;3.88;1.80;;;13.00;59.00;;;;;;5052631;28;20040;-66
2022/06/14 03:45:51;;;;;;;4.97;1.90;;;13.00;59.00;;;;;;5033811;28;20041;-66
2022/06/14 03:48:17;;;;;;;4.18;2.13;;;13.00;59.20;;;;;;5052279;28;20041;-67
2022/06/14 03:51:06;;;;;;;5.20;1.40;;;13.00;59.20;;;;;;5053625;28;20051;-67
2022/06/14 03:53:35;;;;;;;5.55;2.00;;;13.00;59.30;;;;;;5052720;28;20420;-67
2022/06/14 03:56:27;;;;;;;4.85;2.53;;;13.00;59.30;;;;;;5053030;28;20091;-67
2022/06/14 03:59:15;;;;;;;4.20;1.73;;;13.00;59.50;;;;;;5040242;28;20053;-67
2022/06/14 04:01:58;;;;;;;4.97;1.92;;;13.00;59.60;;;;;;5053548;28;20109;-67
2022/06/14 04:04:41;;;;;;;5.80;2.17;;;13.00;59.60;;;;;;5042187;28;20053;-67
2022/06/14 04:07:21;;;;;;;7.47;2.10;;;13.00;59.60;;;;;;5039324;28;20041;-67
2022/06/14 04:10:25;;;;;;;4.75;2.17;;;13.00;59.70;;;;;;5052214;28;20041;-67
2022/06/14 04:13:10;;;;;;;4.22;2.15;;;13.00;59.80;;;;;;5052829;28;20041;-67
2022/06/14 04:15:55;;;;;;;4.60;2.08;;;13.00;59.80;;;;;;5049343;28;20045;-67
2022/06/14 04:18:45;;;;;;;3.72;1.70;;;13.00;59.80;;;;;;5048018;28;20396;-67
2022/06/14 04:21:32;;;;;;;6.90;1.90;;;13.00;59.80;;;;;;5052259;28;20427;-67
2022/06/14 04:24:10;;;;;;;4.00;1.60;;;13.00;59.80;;;;;;5052681;28;20049;-67
2022/06/14 04:27:05;;;;;;;3.42;1.55;;;13.10;59.80;;;;;;5052044;28;20045;-67
2022/06/14 04:29:43;;;;;;;4.60;1.88;;;13.10;59.80;;;;;;5044794;28;20134;-67
2022/06/14 04:32:30;;;;;;;11.10;3.25;;;13.10;59.90;;;;;;5051904;28;20090;-67
2022/06/14 04:35:02;;;;;;;6.50;1.92;;;13.10;59.90;;;;;;5053179;28;20033;-67
2022/06/14 04:37:34;;;;;;;6.10;2.25;;;13.10;60.00;;;;;;5035619;28;20480;-67
2022/06/14 04:40:06;;;;;;;5.82;2.15;;;13.10;60.10;;;;;;5052847;28;20029;-66
2022/06/14 04:42:40;;;;;;;5.70;2.22;;;13.20;60.30;;;;;;5052262;28;20029;-66
2022/06/14 04:45:26;;;;;;;5.22;1.80;;;13.20;60.40;;;;;;5050605;28;20632;-67
2022/06/14 04:47:59;;;;;;;5.97;2.45;;;13.20;60.50;;;;;;5053332;28;20775;-67
2022/06/14 04:50:49;;;;;;;5.55;2.10;;;13.20;60.50;;;;;;5051010;28;20049;-67
2022/06/14 04:53:19;;;;;;;6.82;2.53;;;13.20;60.50;;;;;;5048445;28;20123;-67
2022/06/14 04:56:08;;;;;;;4.50;2.33;;;13.20;60.70;;;;;;5051167;28;20092;-67
2022/06/14 04:58:39;;;;;;;6.53;2.17;;;13.20;60.80;;;;;;5058770;28;20067;-68
2022/06/14 05:01:16;;;;;;;7.97;2.85;;;13.20;61.00;;;;;;5051398;28;20048;-67
2022/06/14 05:03:57;;;;;;;9.70;3.08;;;13.20;61.20;;;;;;5053385;28;20108;-64
2022/06/14 05:06:45;;;;;;;7.38;2.90;;;13.30;61.60;;;;;;5042306;28;20484;-64
2022/06/14 05:09:18;;;;;;;9.07;2.88;;;13.30;61.80;;;;;;5050672;28;20077;-66
2022/06/14 05:11:43;;;;;;;9.20;3.38;;;13.30;62.00;;;;;;5051697;28;20515;-64
2022/06/14 05:14:20;;;;;;;7.43;3.22;;;13.40;62.40;;;;;;5051826;28;20040;-64
2022/06/14 05:16:57;;;;;;;8.18;3.28;;;13.50;63.30;;;;;;5051756;28;20094;-64
2022/06/14 05:19:48;;;;;;;8.48;2.97;;;13.60;63.60;;;;;;5051118;28;20041;-64
2022/06/14 05:22:14;;;;;;;7.00;2.67;;;13.90;63.80;;;;;;5053315;28;20388;-66
2022/06/14 05:24:40;;;;;;;7.03;3.08;;;14.20;63.90;;;;;;5050779;28;20053;-64
2022/06/14 05:27:25;;;;;;;7.00;3.17;;;14.50;63.60;;;;;;5051361;28;20492;-64
2022/06/14 05:30:03;;;;;;;7.20;2.70;;;15.00;63.00;;;;;;5051187;28;20041;-64
2022/06/14 05:33:09;;;;;;;8.85;3.20;;;15.40;62.50;;;;;;5051407;28;20040;-65
2022/06/14 05:36:04;;;;;;;5.82;2.22;;;15.80;61.30;;;;;;5043765;28;20091;-66
2022/06/14 05:38:50;;;;;;;5.50;2.33;;;16.30;60.40;;;;;;5050782;28;20468;-65
2022/06/14 05:41:24;;;;;;;5.18;2.10;;;16.70;59.70;;;;;;5050480;28;20049;-65
2022/06/14 05:43:52;;;;;;;;;;;17.20;58.90;;;;;;5052220;28;20045;-64
2022/06/14 05:46:41;;;;;;;6.97;2.55;;;17.60;58.50;;;;;;5050723;28;19920;-64
2022/06/14 05:49:18;;;;;;;10.32;2.92;;;18.00;58.00;;;;;;5051379;28;20128;-64
2022/06/14 05:52:10;;;;;;;7.72;2.75;;;18.40;57.10;;;;;;5051446;28;20032;-66
2022/06/14 05:54:40;;;;;;;3.90;1.80;;;18.90;56.10;;;;;;5050758;28;20128;-64
2022/06/14 05:57:31;;;;;;;6.55;2.13;;;19.20;55.00;;;;;;5051884;28;20404;-65
2022/06/14 06:00:12;;;;;;;5.53;2.20;;;19.50;54.50;;;;;;5051071;28;20045;-64
2022/06/14 06:02:56;;;;;;;8.73;2.45;;;19.80;54.00;;;;;;5016076;28;20080;-64
2022/06/14 06:05:33;;;;;;;;;;;20.10;53.70;;;;;;5051753;28;20048;-64
2022/06/14 06:08:14;;;;;;;7.28;2.58;;;20.50;53.70;;;;;;5049899;28;19939;-64
2022/06/14 06:10:43;;;;;;;7.10;2.22;;;20.80;52.70;;;;;;5049775;28;20067;-66
2022/06/14 06:13:53;;;;;;;8.20;2.25;;;21.20;52.10;;;;;;5049677;28;20123;-65
2022/06/14 06:19:21;;;;;;;7.47;2.25;;;21.80;50.80;;;;;;5049478;28;20060;-64
2022/06/14 06:21:52;;;;;;;5.75;2.08;;;22.10;49.90;;;;;;5049790;28;20033;-63
2022/06/14 06:24:42;;;;;;;7.22;2.10;;;22.40;48.90;;;;;;5051908;28;20068;-64
2022/06/14 06:27:10;;;;;;;7.43;1.85;;;22.70;48.10;;;;;;5050888;28;20045;-64
2022/06/14 06:29:44;;;;;;;4.95;1.90;;;23.00;47.90;;;;;;5050830;28;20044;-64
2022/06/14 06:32:10;;;;;;;6.85;2.30;;;23.20;47.50;;;;;;5052807;28;20041;-63
2022/06/14 06:34:36;;;;;;;5.78;1.98;;;23.50;47.30;;;;;;5037910;28;20080;-63
2022/06/14 06:37:06;;;;;;;5.10;2.17;;;23.60;46.40;;;;;;5050890;28;20045;-64
2022/06/14 06:39:41;;;;;;;6.38;1.90;;;23.80;46.10;;;;;;5051890;28;20033;-63
2022/06/14 06:42:21;;;;;;;4.72;1.83;;;24.00;45.80;;;;;;5052214;28;20068;-63
2022/06/14 06:44:59;;;;;;;5.43;1.85;;;24.20;45.60;;;;;;5050361;28;20092;-63
2022/06/14 06:47:33;;;;;;;5.45;2.03;;;24.40;45.00;;;;;;5051986;28;20560;-63
2022/06/14 06:50:17;;;;;;;6.40;2.17;;;24.60;44.10;;;;;;5050110;28;20049;-63
2022/06/14 06:52:53;;;;;;;5.97;1.75;;;24.90;43.50;;;;;;5049370;28;20080;-64
2022/06/14 06:55:41;;;;;;;5.07;1.45;;;25.10;43.10;;;;;;5051495;28;20544;-63
2022/06/14 06:58:27;;;;;;;5.28;2.10;;;25.20;42.50;;;;;;5050595;28;20108;-64
2022/06/14 07:00:59;;;;;;;7.90;2.45;;;25.40;41.90;;;;;;5039825;28;20111;-63
2022/06/14 07:03:47;;;;;;;7.10;1.80;;;25.50;41.30;;;;;;5047552;28;20037;-64
2022/06/14 07:06:27;;;;;;;7.22;2.25;;;25.70;41.70;;;;;;5032654;28;20042;-63
2022/06/14 07:09:01;;;;;;;5.30;2.00;;;25.90;41.60;;;;;;5054266;28;20072;-63
2022/06/14 07:11:38;;;;;;;5.78;1.65;;;26.10;41.20;;;;;;5055591;28;20037;-63
2022/06/14 07:14:24;;;;;;;5.60;1.70;;;26.20;40.70;;;;;;5053977;28;20068;-63
2022/06/14 07:17:02;;;;;;;6.72;1.83;;;26.40;40.40;;;;;;5055521;28;20120;-63
2022/06/14 07:19:44;;;;;;;3.90;1.60;;;26.60;39.90;;;;;;5055272;28;20044;-63
2022/06/14 07:22:13;;;;;;;4.82;1.58;;;26.80;39.30;;;;;;5054046;28;20518;-63
2022/06/14 07:25:05;;;;;;;5.55;1.55;;;26.80;38.90;;;;;;5054427;28;20089;-65
2022/06/14 07:27:50;;;;;;;4.75;1.83;;;26.80;38.60;;;;;;5054018;28;20049;-63
2022/06/14 07:30:23;;;;;;;4.95;1.88;;;26.70;38.40;;;;;;5053782;28;20056;-63
2022/06/14 07:32:53;;;;;;;4.72;1.35;;;26.70;38.70;;;;;;5053825;28;20052;-63
2022/06/14 07:35:26;;;;;;;4.88;1.23;;;26.60;38.60;;;;;;5048461;28;20040;-63
2022/06/14 07:38:11;;;;;;;;;;;26.50;38.60;;;;;;5054392;28;20033;-63
2022/06/14 07:40:47;;;;;;;5.18;1.42;;;26.40;39.50;;;;;;5054355;28;20276;-63
2022/06/14 07:43:30;;;;;;;3.42;1.10;;;26.40;38.70;;;;;;5055166;28;20043;-63
2022/06/14 07:46:01;;;;;;;3.90;1.17;;;26.40;38.50;;;;;;5055182;28;20123;-63
2022/06/14 07:48:33;;;;;;;5.07;1.50;;;26.30;38.40;;;;;;5054391;28;20056;-63
2022/06/14 07:51:30;;;;;;;2.88;1.00;;;26.40;38.60;;;;;;5055065;28;20047;-63
2022/06/14 07:54:16;;;;;;;4.22;1.25;;;26.50;38.50;;;;;;5053929;28;20506;-63
2022/06/14 07:56:56;;;;;;;4.32;1.38;;;26.60;38.10;;;;;;5054758;28;20033;-63
2022/06/14 07:59:30;;;;;;;4.38;1.30;;;26.60;38.20;;;;;;5035175;28;20041;-63
2022/06/14 08:02:12;;;;;;;3.83;1.38;;;26.70;38.00;;;;;;5048574;28;20064;-63
2022/06/14 08:04:45;;;;;;;2.38;1.20;;;26.80;38.10;;;;;;5048066;28;20098;-63
2022/06/14 08:07:14;;;;;;;5.97;1.70;;;26.80;37.80;;;;;;5054129;28;20037;-63
2022/06/14 08:09:46;;;;;;;5.05;1.92;;;27.00;37.80;;;;;;5054908;28;20049;-63
2022/06/14 08:12:32;;;;;;;4.10;1.35;;;27.10;37.60;;;;;;5052792;28;20045;-63
2022/06/14 08:15:07;;;;;;;3.30;1.13;;;27.20;37.70;;;;;;5053245;28;20041;-64
2022/06/14 08:17:39;;;;;;;3.63;1.20;;;27.20;37.40;;;;;;5052297;28;20044;-63
2022/06/14 08:20:32;;;;;;;3.93;1.23;;;27.20;37.10;;;;;;5052308;28;20045;-63
2022/06/14 08:23:01;;;;;;;4.13;1.35;;;27.00;37.10;;;;;;5052413;28;20037;-63
2022/06/14 08:25:35;;;;;;;5.32;1.35;;;26.90;36.90;;;;;;5052979;28;20504;-63
2022/06/14 08:28:13;;;;;;;2.65;1.10;;;26.80;36.80;;;;;;5036298;28;20487;-63
2022/06/14 08:30:56;;;;;;;5.22;1.45;;;26.70;37.10;;;;;;5054613;28;20385;-63
2022/06/14 08:33:38;;;;;;;2.28;0.93;;;26.50;37.60;;;;;;5051776;28;20123;-63
2022/06/14 08:36:11;;;;;;;4.25;1.50;;;26.50;37.40;;;;;;5053270;28;20103;-63
2022/06/14 08:39:00;;;;;;;5.03;1.27;;;26.40;37.20;;;;;;5053645;28;20037;-63
2022/06/14 08:41:45;;;;;;;3.50;1.15;;;26.40;37.90;;;;;;5051491;28;20502;-63
2022/06/14 08:44:16;;;;;;;5.38;1.27;;;26.50;38.30;;;;;;5049988;28;20454;-64
2022/06/14 08:47:00;;;;;;;4.57;1.50;;;26.70;37.80;;;;;;5051585;28;20075;-64
2022/06/14 08:50:08;;;;;;;5.25;1.35;;;26.80;37.20;;;;;;5048945;28;20128;-63
2022/06/14 08:53:02;;;;;;;7.20;1.65;;;26.80;36.60;;;;;;5041238;28;20036;-63
2022/06/14 08:55:59;;;;;;;2.85;1.20;;;26.70;36.80;;;;;;5049592;28;20064;-63
2022/06/14 08:58:32;;;;;;;1.58;0.65;;;26.70;36.60;;;;;;5052459;28;20062;-63
2022/06/14 09:01:11;;;;;;;2.55;0.80;;;26.60;36.50;;;;;;5052257;28;20085;-63
2022/06/14 09:03:48;;;;;;;2.03;0.70;;;26.60;36.20;;;;;;5042966;28;20040;-63
2022/06/14 09:06:51;;;;;;;3.17;1.00;;;26.60;36.10;;;;;;5052745;28;20073;-63
2022/06/14 09:09:54;;;;;;;2.50;1.05;;;26.50;36.10;;;;;;5048125;28;20040;-63
2022/06/14 09:12:49;;;;;;;3.80;1.42;;;26.40;35.50;;;;;;5052173;28;20043;-63
2022/06/14 09:15:54;;;;;;;2.67;0.80;;;26.40;35.80;;;;;;5047789;28;20052;-63
2022/06/14 09:18:41;;;;;;;3.97;1.10;;;26.30;35.80;;;;;;5060646;28;20082;-63
2022/06/14 09:21:33;;;;;;;2.22;0.93;;;26.30;35.70;;;;;;5052154;28;20047;-63
2022/06/14 09:24:11;;;;;;;3.30;0.90;;;26.20;35.70;;;;;;5050926;28;20131;-63
2022/06/14 09:26:48;;;;;;;6.13;1.30;;;26.20;36.40;;;;;;5053355;28;20049;-63
2022/06/14 09:29:14;;;;;;;5.15;1.30;;;26.20;37.30;;;;;;5051935;28;20619;-63
2022/06/14 09:31:51;;;;;;;3.65;1.00;;;26.30;37.80;;;;;;5052677;28;20111;-63
2022/06/14 09:34:40;;;;;;;3.63;1.58;;;26.40;37.30;;;;;;5052241;28;20037;-63
2022/06/14 09:37:05;;;;;;;3.83;0.68;;;26.50;36.50;;;;;;5052654;28;20408;-63
2022/06/14 09:39:49;;;;;;;5.13;1.13;;;26.60;37.20;;;;;;5052748;28;20037;-63
2022/06/14 09:42:29;;;;;;;3.55;0.90;;;26.70;37.30;;;;;;5051244;28;20621;-64
2022/06/14 09:45:25;;;;;;;2.25;0.85;;;26.80;36.80;;;;;;5052782;28;20167;-63
2022/06/14 09:47:58;;;;;;;3.38;0.90;;;27.00;37.30;;;;;;5052599;28;20041;-63
2022/06/14 09:50:42;;;;;;;2.95;0.93;;;27.10;36.90;;;;;;5051519;28;20128;-64
2022/06/14 09:53:40;;;;;;;4.25;1.13;;;27.30;36.20;;;;;;5045853;28;20037;-63
2022/06/14 09:56:16;;;;;;;3.42;0.80;;;27.40;34.20;;;;;;5065666;28;20056;-64
2022/06/14 09:59:00;;;;;;;2.63;0.88;;;27.40;34.60;;;;;;5061322;28;20037;-64
2022/06/14 10:01:59;;;;;;;3.08;1.27;;;27.50;34.90;;;;;;5031452;28;20084;-65
2022/06/14 10:04:34;;;;;;;1.90;0.73;;;27.50;34.50;;;;;;5049874;28;20123;-64
2022/06/14 10:07:03;;;;;;;3.50;0.90;;;27.50;35.20;;;;;;5051468;28;20183;-64
2022/06/14 10:09:37;;;;;;;1.80;0.85;;;27.40;35.20;;;;;;5051894;28;20484;-64
2022/06/14 10:12:09;;;;;;;2.92;0.90;;;27.30;34.90;;;;;;5052550;28;20175;-64
2022/06/14 10:14:51;;;;;;;1.95;1.02;;;27.30;34.60;;;;;;5052536;28;20037;-64
2022/06/14 10:17:39;;;;;;;2.67;0.90;;;27.10;35.90;;;;;;5049151;28;20056;-64
2022/06/14 10:24:16;;;;;;;2.55;0.80;;;26.90;37.00;;;;;;5029206;28;20048;-64
2022/06/14 10:30:39;;;;;;;2.10;0.90;;;26.90;36.60;;;;;;5050236;28;20077;-64
2022/06/14 10:33:31;;;;;;;2.60;0.90;;;26.80;37.00;;;;;;5049018;28;20099;-64
2022/06/14 10:36:21;;;;;;;2.20;0.80;;;26.80;37.00;;;;;;5060622;28;20474;-64
2022/06/14 10:39:09;;;;;;;3.40;1.10;;;26.80;37.20;;;;;;5050539;28;20496;-64
2022/06/14 10:41:43;;;;;;;3.53;1.00;;;26.80;36.10;;;;;;5052061;28;20044;-65
2022/06/14 10:44:59;;;;;;;3.45;1.23;;;26.80;36.20;;;;;;5054316;28;20047;-64
2022/06/14 10:47:52;;;;;;;4.88;1.38;;;26.70;36.20;;;;;;5031524;28;20527;-66
2022/06/14 10:50:38;;;;;;;4.32;1.45;;;26.70;35.30;;;;;;5054007;28;20403;-66
2022/06/14 10:53:30;;;;;;;4.45;1.25;;;26.60;35.30;;;;;;5056049;28;20048;-65
2022/06/14 10:56:19;;;;;;;2.05;0.73;;;26.40;35.60;;;;;;5051722;28;20454;-66
2022/06/14 10:59:00;;;;;;;4.60;1.13;;;26.40;35.40;;;;;;5056405;28;20041;-65
2022/06/14 11:01:34;;;;;;;1.98;0.90;;;26.30;35.20;;;;;;5062781;28;20068;-65
2022/06/14 11:04:19;;;;;;;2.58;0.85;;;26.20;35.40;;;;;;5056779;28;20075;-64
2022/06/14 11:07:29;;;;;;;3.90;1.13;;;26.20;34.50;;;;;;5056096;28;20128;-64
2022/06/14 11:10:15;;;;;;;2.60;1.05;;;26.00;35.40;;;;;;5051183;28;20090;-65
2022/06/14 11:13:00;;;;;;;2.00;0.80;;;26.00;36.40;;;;;;5055933;28;20051;-65
2022/06/14 11:15:38;;;;;;;3.28;1.10;;;26.00;36.00;;;;;;5063462;28;20048;-65
2022/06/14 11:18:38;;;;;;;4.25;1.30;;;26.00;35.60;;;;;;5045004;28;20105;-65
2022/06/14 11:21:28;;;;;;;2.50;1.00;;;25.70;35.30;;;;;;5045597;28;20044;-66
2022/06/14 11:24:09;;;;;;;2.22;0.88;;;25.50;35.30;;;;;;5044700;28;20066;-64
2022/06/14 11:27:09;;;;;;;2.65;1.00;;;25.30;35.10;;;;;;5046259;28;20053;-64
2022/06/14 11:30:02;;;;;;;4.07;1.15;;;25.00;35.00;;;;;;5060904;28;20086;-65
2022/06/14 11:32:43;;;;;;;4.78;1.15;;;25.00;35.10;;;;;;5065032;28;20045;-65
2022/06/14 11:35:17;;;;;;;3.17;1.10;;;24.90;35.80;;;;;;5061035;28;20044;-65
2022/06/14 11:38:07;;;;;;;3.33;1.10;;;24.80;35.30;;;;;;5061695;28;20484;-65
2022/06/14 11:40:36;;;;;;;2.55;0.85;;;24.80;35.70;;;;;;5059713;28;20492;-65
2022/06/14 11:43:39;;;;;;;2.67;1.00;;;24.80;35.10;;;;;;5065403;28;20495;-65
2022/06/14 11:46:23;;;;;;;2.40;0.80;;;24.80;35.20;;;;;;5020736;28;20098;-65
2022/06/14 11:48:56;;;;;;;;;;;24.80;35.20;;;;;;5065963;28;20558;-65
2022/06/14 11:51:49;;;;;;;2.55;0.77;;;24.80;36.80;;;;;;5059973;28;19932;-65
2022/06/14 11:54:15;;;;;;;1.10;0.32;;;24.90;37.50;;;;;;5062459;28;20036;-64
2022/06/14 11:56:53;;;;;;;1.70;0.47;;;25.00;36.40;;;;;;5061527;28;20522;-64
2022/06/14 11:59:48;;;;;;;3.10;0.80;;;25.10;37.00;;;;;;5061194;28;20052;-65
2022/06/14 12:02:37;;;;;;;2.20;0.80;;;25.20;37.30;;;;;;5062220;28;20086;-65
2022/06/14 12:05:44;;;;;;;2.30;0.73;;;25.30;36.00;;;;;;5062851;28;20044;-65
2022/06/14 12:08:59;;;;;;;4.53;0.75;;;25.30;37.90;;;;;;5061600;28;20041;-65
2022/06/14 12:11:29;;;;;;;2.15;0.80;;;25.40;38.50;;;;;;5061076;28;20040;-65
2022/06/14 12:14:23;;;;;;;3.10;1.10;;;25.50;37.20;;;;;;5061926;28;21098;-65
2022/06/14 12:17:25;;;;;;;2.87;0.80;;;25.50;37.90;;;;;;5063141;28;20048;-65
2022/06/14 12:20:00;;;;;;;2.75;1.02;;;25.50;38.30;;;;;;5063313;28;20101;-65
2022/06/14 12:22:37;;;;;;;2.92;0.95;;;25.50;38.20;;;;;;5064107;28;22482;-65
2022/06/14 12:28:12;;;;;;;2.58;0.70;;;25.70;38.30;;;;;;5062345;28;20119;-65
2022/06/14 12:30:41;;;;;;;2.08;0.90;;;25.80;37.90;;;;;;5059382;28;20044;-65
2022/06/14 12:33:30;;;;;;;3.47;0.90;;;25.90;37.90;;;;;;5061807;28;20044;-65
2022/06/14 12:36:14;;;;;;;2.97;0.90;;;26.00;38.90;;;;;;5045703;28;20050;-65
2022/06/14 12:38:44;;;;;;;3.60;1.17;;;26.10;38.30;;;;;;5062492;28;20231;-65
2022/06/14 12:41:18;;;;;;;3.45;1.27;;;26.20;38.20;;;;;;5061768;28;20131;-65
2022/06/14 12:43:59;;;;;;;3.20;1.00;;;26.30;37.40;;;;;;5064265;28;20040;-65
2022/06/14 12:46:30;;;;;;;2.05;0.70;;;26.40;37.60;;;;;;5060007;28;20079;-65
2022/06/14 12:49:12;;;;;;;3.08;0.98;;;26.50;37.40;;;;;;5062453;28;20049;-65
2022/06/14 12:51:56;;;;;;;3.15;0.93;;;26.50;37.80;;;;;;5063879;28;20173;-65
2022/06/14 12:54:44;;;;;;;;;;;26.60;36.80;;;;;;5058662;28;20091;-65
2022/06/14 12:57:24;;;;;;;2.13;0.70;;;26.60;37.20;;;;;;5062090;28;19924;-65
2022/06/14 12:59:56;;;;;;;3.20;0.98;;;26.60;37.10;;;;;;5061330;28;20511;-65
2022/06/14 13:02:28;;;;;;;2.00;0.80;;;26.70;36.80;;;;;;5061447;28;20510;-63
2022/06/14 13:05:02;;;;;;;2.80;1.17;;;26.70;37.20;;;;;;5056562;28;20048;-64
2022/06/14 13:08:05;;;;;;;2.83;0.82;;;26.70;37.10;;;;;;5060068;28;20048;-64
2022/06/14 13:10:43;;;;;;;3.25;0.90;;;26.90;36.70;;;;;;5060060;28;20076;-64
2022/06/14 13:13:26;;;;;;;3.80;1.20;;;26.80;35.10;;;;;;5058989;28;20036;-64
2022/06/14 13:16:26;;;;;;;2.10;0.77;;;26.70;34.70;;;;;;5061004;28;20048;-64
2022/06/14 13:19:22;;;;;;;2.95;0.90;;;26.60;35.20;;;;;;5048143;28;20123;-64
2022/06/14 13:22:38;;;;;;;3.50;1.05;;;26.40;35.00;;;;;;5058311;28;20091;-64
2022/06/14 13:25:22;;;;;;;3.28;0.90;;;26.20;35.90;;;;;;5000218;28;20083;-64
2022/06/14 13:28:13;;;;;;;4.82;1.10;;;26.10;35.90;;;;;;5002015;28;20057;-64
2022/06/14 13:30:52;;;;;;;1.70;0.90;;;26.10;36.80;;;;;;5044685;28;20067;-64
2022/06/14 13:33:23;;;;;;;2.47;0.82;;;26.10;37.20;;;;;;5055456;28;20047;-64
2022/06/14 13:36:10;;;;;;;2.28;0.95;;;26.20;37.60;;;;;;5060190;28;20056;-64
2022/06/14 13:38:40;;;;;;;1.98;0.90;;;26.30;38.00;;;;;;5060100;28;20174;-64
2022/06/14 13:41:24;;;;;;;4.22;0.80;;;26.40;37.30;;;;;;5060338;28;20048;-64
2022/06/14 13:44:16;;;;;;;2.05;1.00;;;26.50;37.70;;;;;;5059693;28;20041;-63
2022/06/14 13:47:05;;;;;;;3.28;1.10;;;26.60;37.40;;;;;;5056428;28;20083;-64
2022/06/14 13:49:36;;;;;;;1.85;0.70;;;26.70;36.30;;;;;;5057807;28;20117;-64
2022/06/14 13:52:11;;;;;;;3.70;0.75;;;26.70;37.20;;;;;;5058492;28;20143;-64
2022/06/14 13:55:02;;;;;;;2.78;1.42;;;26.70;37.50;;;;;;5058432;28;20044;-65
2022/06/14 13:57:32;;;;;;;1.98;1.00;;;26.80;38.00;;;;;;5051009;28;20050;-65
2022/06/14 14:00:05;;;;;;;4.57;1.08;;;26.90;37.10;;;;;;5062027;28;20048;-65
2022/06/14 14:02:50;;;;;;;2.05;0.85;;;27.00;36.30;;;;;;5059424;28;20721;-65
2022/06/14 14:05:34;;;;;;;1.67;0.65;;;27.00;37.10;;;;;;5059725;28;20048;-65
2022/06/14 14:08:33;;;;;;;1.08;0.70;;;27.10;37.40;;;;;;5060953;28;20126;-65
2022/06/14 14:11:08;;;;;;;2.25;0.70;;;27.20;37.90;;;;;;5063068;28;20537;-65